Time;durP1;ratioP1;P1;durP2;ratioP2;P2;SDS_P1;SDS_P2;PMS_P1;PMS_P2;Temp;Humidity;BMP_temperature;BMP_pressure;BME280_temperature;BME280_humidity;BME280_pressure;Samples;Min_cycle;Max_cycle;Signal;HPM_P1;HPM_P2
2023/09/24 00:01:42;;;;;;;13.18;7.20;;;10.10;99.90;;;;;;5072013;28;20132;-64
2023/09/24 00:04:09;;;;;;;16.83;6.78;;;10.10;99.90;;;;;;5053963;28;20066;-65
2023/09/24 00:06:34;;;;;;;12.68;6.70;;;10.10;99.90;;;;;;5075867;28;20039;-63
2023/09/24 00:09:00;;;;;;;12.98;6.45;;;10.00;99.90;;;;;;5072597;28;20385;-64
2023/09/24 00:11:25;;;;;;;12.43;6.53;;;10.00;99.90;;;;;;5079882;28;20036;-66
2023/09/24 00:13:51;;;;;;;22.42;7.50;;;9.90;99.90;;;;;;5071463;28;20135;-65
2023/09/24 00:16:17;;;;;;;13.48;6.57;;;9.90;99.90;;;;;;5068984;28;20047;-64
2023/09/24 00:18:42;;;;;;;10.95;6.50;;;9.90;99.90;;;;;;5085424;28;20032;-65
2023/09/24 00:21:08;;;;;;;9.50;6.47;;;9.90;99.90;;;;;;5076289;28;20033;-65
2023/09/24 00:23:34;;;;;;;13.25;7.35;;;9.90;99.90;;;;;;5063913;28;20025;-62
2023/09/24 00:25:59;;;;;;;15.52;7.97;;;9.80;99.90;;;;;;5077998;28;20032;-63
2023/09/24 00:28:25;;;;;;;13.68;7.65;;;9.80;99.90;;;;;;5063555;28;20028;-64
2023/09/24 00:30:55;;;;;;;13.25;7.13;;;9.80;99.90;;;;;;5076195;28;20024;-64
2023/09/24 00:33:21;;;;;;;11.48;6.88;;;9.80;99.90;;;;;;5075135;28;20027;-66
2023/09/24 00:35:47;;;;;;;15.00;6.93;;;9.80;99.90;;;;;;5063343;28;20028;-65
2023/09/24 00:38:13;;;;;;;17.15;8.15;;;9.80;99.90;;;;;;5079526;28;20016;-65
2023/09/24 00:40:39;;;;;;;20.40;8.13;;;9.80;99.90;;;;;;5079796;28;20385;-67
2023/09/24 00:43:30;;;;;;;16.55;9.27;;;9.80;99.90;;;;;;5080667;28;20017;-65
2023/09/24 00:45:57;;;;;;;24.70;11.23;;;9.70;99.90;;;;;;5078434;28;20077;-63
2023/09/24 00:48:28;;;;;;;22.17;11.18;;;9.70;99.90;;;;;;5075453;28;20052;-66
2023/09/24 00:51:21;;;;;;;21.33;9.30;;;9.70;99.90;;;;;;5077685;28;20024;-66
2023/09/24 00:53:48;;;;;;;17.40;7.77;;;9.60;99.90;;;;;;5064815;28;20320;-66
2023/09/24 00:56:14;;;;;;;20.38;8.95;;;9.60;99.90;;;;;;5087456;28;20282;-65
2023/09/24 00:58:46;;;;;;;25.67;8.00;;;9.60;99.90;;;;;;5068713;28;20016;-66
2023/09/24 01:01:12;;;;;;;17.55;7.43;;;9.60;99.90;;;;;;5082655;28;20028;-66
2023/09/24 01:03:40;;;;;;;20.90;8.35;;;9.60;99.90;;;;;;5089723;28;20031;-65
2023/09/24 01:06:06;;;;;;;18.50;5.13;;;9.60;99.90;;;;;;5075800;28;20127;-64
2023/09/24 01:08:33;;;;;;;11.30;3.55;;;9.60;99.90;;;;;;5078574;28;20016;-65
2023/09/24 01:11:00;;;;;;;9.30;4.68;;;9.60;99.90;;;;;;5083478;28;20027;-65
2023/09/24 01:13:39;;;;;;;12.13;6.22;;;9.60;99.90;;;;;;5083110;28;20020;-65
2023/09/24 01:16:06;;;;;;;25.73;4.90;;;9.60;99.90;;;;;;5072763;28;20028;-63
2023/09/24 01:18:34;;;;;;;29.80;4.85;;;9.50;99.90;;;;;;5084914;28;20515;-66
2023/09/24 01:21:01;;;;;;;23.60;5.00;;;9.50;99.90;;;;;;5082159;28;20046;-65
2023/09/24 01:23:29;;;;;;;17.65;4.18;;;9.50;99.90;;;;;;5081558;28;20024;-65
2023/09/24 01:25:56;;;;;;;11.07;3.92;;;9.40;99.90;;;;;;5088468;28;20042;-65
2023/09/24 01:28:21;;;;;;;5.53;4.03;;;9.40;99.90;;;;;;5081029;28;20032;-64
2023/09/24 01:30:47;;;;;;;3.72;2.88;;;9.40;99.90;;;;;;5091078;28;20512;-65
2023/09/24 01:33:13;;;;;;;5.38;3.85;;;9.20;99.90;;;;;;5083222;28;20032;-63
2023/09/24 01:35:39;;;;;;;4.28;2.83;;;9.20;99.90;;;;;;5082503;28;20023;-65
2023/09/24 01:38:05;;;;;;;4.53;3.13;;;9.10;99.90;;;;;;5084689;28;20031;-65
2023/09/24 01:40:37;;;;;;;4.82;2.97;;;9.10;99.90;;;;;;5083064;28;20085;-66
2023/09/24 01:43:05;;;;;;;6.20;3.10;;;9.00;99.90;;;;;;5085924;28;20017;-65
2023/09/24 01:45:33;;;;;;;10.35;3.85;;;9.00;99.90;;;;;;5082237;28;20027;-65
2023/09/24 01:48:00;;;;;;;6.82;3.65;;;9.10;99.90;;;;;;5083252;28;20504;-65
2023/09/24 01:50:27;;;;;;;5.50;3.63;;;9.10;99.90;;;;;;5088831;28;20492;-63
2023/09/24 01:52:53;;;;;;;5.20;3.17;;;9.00;99.90;;;;;;5073078;28;20154;-65
2023/09/24 01:55:19;;;;;;;7.50;4.68;;;9.00;99.90;;;;;;5088865;28;20418;-65
2023/09/24 01:57:45;;;;;;;7.57;4.22;;;9.00;99.90;;;;;;5077810;28;20108;-65
2023/09/24 02:00:23;;;;;;;5.65;3.30;;;9.10;99.90;;;;;;5081935;28;20024;-65
2023/09/24 02:02:57;;;;;;;5.22;3.45;;;9.10;99.90;;;;;;5090589;28;20031;-67
2023/09/24 02:05:23;;;;;;;5.63;3.63;;;9.10;99.90;;;;;;5078750;28;20024;-66
2023/09/24 02:07:49;;;;;;;6.50;3.55;;;9.10;99.90;;;;;;5076866;28;20489;-66
2023/09/24 02:10:18;;;;;;;6.45;3.95;;;9.10;99.90;;;;;;5089484;28;20093;-67
2023/09/24 02:12:45;;;;;;;6.07;3.80;;;9.10;99.90;;;;;;5089382;28;20016;-65
2023/09/24 02:15:20;;;;;;;10.45;3.88;;;9.00;99.90;;;;;;5082101;28;20551;-63
2023/09/24 02:17:48;;;;;;;6.75;4.47;;;9.00;99.90;;;;;;5079858;28;20044;-66
2023/09/24 02:22:50;;;;;;;6.82;3.83;;;9.00;99.90;;;;;;5073898;28;20017;-65
2023/09/24 02:25:20;;;;;;;8.20;4.75;;;9.00;99.90;;;;;;5082523;28;20091;-67
2023/09/24 02:27:50;;;;;;;7.05;4.05;;;9.00;99.90;;;;;;5088473;28;20370;-65
2023/09/24 02:30:17;;;;;;;7.82;4.22;;;9.00;99.90;;;;;;5081660;28;20504;-65
2023/09/24 02:32:44;;;;;;;8.20;4.43;;;9.00;99.90;;;;;;5080777;28;20117;-65
2023/09/24 02:35:16;;;;;;;7.93;4.00;;;9.00;99.90;;;;;;5094414;28;20111;-58
2023/09/24 02:37:45;;;;;;;6.63;4.07;;;9.00;99.90;;;;;;5081220;28;20038;-65
2023/09/24 02:40:15;;;;;;;7.82;4.22;;;9.00;99.90;;;;;;5085746;28;20028;-66
2023/09/24 02:42:48;;;;;;;8.57;3.88;;;8.90;99.90;;;;;;5085888;28;20102;-65
2023/09/24 02:45:15;;;;;;;7.43;4.32;;;8.80;99.90;;;;;;5085463;28;20112;-63
2023/09/24 02:47:41;;;;;;;9.25;4.28;;;8.80;99.90;;;;;;5082098;28;20434;-65
2023/09/24 02:50:08;;;;;;;6.93;3.70;;;8.80;99.90;;;;;;5082296;28;20543;-65
2023/09/24 02:52:35;;;;;;;9.30;3.75;;;8.70;99.90;;;;;;5085783;28;20397;-64
2023/09/24 02:55:00;;;;;;;11.02;2.92;;;8.70;99.90;;;;;;5073747;28;20450;-64
2023/09/24 02:57:27;;;;;;;23.25;2.60;;;8.80;99.90;;;;;;5087542;28;20151;-64
2023/09/24 02:59:52;;;;;;;32.40;2.28;;;8.70;99.90;;;;;;5085380;28;20100;-65
2023/09/24 03:02:18;;;;;;;4.10;1.98;;;8.70;99.90;;;;;;5082668;28;20085;-65
2023/09/24 03:04:44;;;;;;;5.28;1.85;;;8.70;99.90;;;;;;5082783;28;20032;-65
2023/09/24 03:07:10;;;;;;;12.85;1.38;;;8.70;99.90;;;;;;5074777;28;20020;-64
2023/09/24 03:09:36;;;;;;;8.80;1.67;;;8.60;99.90;;;;;;5081982;28;20031;-65
2023/09/24 03:12:01;;;;;;;7.13;1.65;;;8.60;99.90;;;;;;5080835;28;20028;-64
2023/09/24 03:14:27;;;;;;;5.63;1.30;;;8.60;99.90;;;;;;5076099;28;20029;-65
2023/09/24 03:16:53;;;;;;;4.55;1.70;;;8.50;99.90;;;;;;5080533;28;20063;-65
2023/09/24 03:19:18;;;;;;;4.68;1.52;;;8.50;99.90;;;;;;5083564;28;20033;-64
2023/09/24 03:21:44;;;;;;;2.85;1.70;;;8.40;99.90;;;;;;5080920;28;20120;-62
2023/09/24 03:24:14;;;;;;;2.75;1.25;;;8.40;99.90;;;;;;5085110;28;20017;-65
2023/09/24 03:26:40;;;;;;;2.35;1.48;;;8.40;99.90;;;;;;5075579;28;20371;-64
2023/09/24 03:29:06;;;;;;;7.00;2.03;;;8.30;99.90;;;;;;5081965;28;20024;-65
2023/09/24 03:31:33;;;;;;;2.50;1.67;;;8.40;99.90;;;;;;5073309;28;20081;-65
2023/09/24 03:33:59;;;;;;;4.22;1.70;;;8.30;99.90;;;;;;5088551;28;20028;-65
2023/09/24 03:36:24;;;;;;;3.53;1.90;;;8.30;99.90;;;;;;5083639;28;20028;-65
2023/09/24 03:38:50;;;;;;;3.90;2.38;;;8.20;99.90;;;;;;5080678;28;20048;-65
2023/09/24 03:41:16;;;;;;;4.28;2.35;;;8.20;99.90;;;;;;5083820;28;20020;-65
2023/09/24 03:43:42;;;;;;;3.67;2.22;;;8.20;99.90;;;;;;5070951;28;20031;-66
2023/09/24 03:46:09;;;;;;;3.13;2.47;;;8.10;99.90;;;;;;5083690;28;20016;-67
2023/09/24 03:48:35;;;;;;;2.92;2.20;;;8.10;99.90;;;;;;5071254;28;20052;-65
2023/09/24 03:51:01;;;;;;;2.72;2.08;;;8.10;99.90;;;;;;5086873;28;20527;-65
2023/09/24 03:53:27;;;;;;;2.60;1.92;;;8.10;99.90;;;;;;5055862;28;20063;-64
2023/09/24 03:55:53;;;;;;;3.20;2.22;;;8.10;99.90;;;;;;5083881;28;20063;-63
2023/09/24 03:58:19;;;;;;;3.13;2.10;;;8.00;99.90;;;;;;5072919;28;20028;-64
2023/09/24 04:00:44;;;;;;;4.10;2.53;;;8.00;99.90;;;;;;5091215;28;20107;-66
2023/09/24 04:03:12;;;;;;;3.05;2.08;;;8.00;99.90;;;;;;5083468;28;20035;-62
2023/09/24 04:05:37;;;;;;;4.45;2.30;;;8.00;99.90;;;;;;5069883;28;20535;-62
2023/09/24 04:08:03;;;;;;;3.15;2.33;;;8.00;99.90;;;;;;5082238;28;20024;-65
2023/09/24 04:10:30;;;;;;;7.65;2.03;;;8.00;99.90;;;;;;5072320;28;20028;-65
2023/09/24 04:13:00;;;;;;;20.73;2.50;;;8.00;99.90;;;;;;5076177;28;20032;-65
2023/09/24 04:15:28;;;;;;;24.50;1.92;;;8.00;99.90;;;;;;5083973;28;20066;-63
2023/09/24 04:17:57;;;;;;;27.25;2.47;;;8.00;99.90;;;;;;5085488;28;20060;-67
2023/09/24 04:20:26;;;;;;;5.78;1.70;;;8.00;99.90;;;;;;5077248;28;20024;-64
2023/09/24 04:22:51;;;;;;;24.48;2.58;;;8.00;99.90;;;;;;5092061;28;20020;-66
2023/09/24 04:25:20;;;;;;;58.28;3.97;;;8.00;99.90;;;;;;5086571;28;20154;-65
2023/09/24 04:27:46;;;;;;;40.13;2.80;;;8.00;99.90;;;;;;5081144;28;20505;-65
2023/09/24 04:30:16;;;;;;;19.60;1.95;;;8.00;99.90;;;;;;5081488;28;20060;-65
2023/09/24 04:32:42;;;;;;;41.20;2.22;;;8.00;99.90;;;;;;5079597;28;20112;-64
2023/09/24 04:35:10;;;;;;;19.58;1.88;;;8.00;99.90;;;;;;5081114;28;20028;-65
2023/09/24 04:37:36;;;;;;;14.90;2.30;;;7.90;99.90;;;;;;5072220;28;20028;-64
2023/09/24 04:40:02;;;;;;;40.33;2.00;;;7.90;99.90;;;;;;5066227;28;20024;-65
2023/09/24 04:42:27;;;;;;;11.32;2.25;;;7.90;99.90;;;;;;5075432;28;20028;-63
2023/09/24 04:44:53;;;;;;;20.17;3.65;;;7.90;99.90;;;;;;5084781;28;20027;-62
2023/09/24 04:47:18;;;;;;;10.38;2.00;;;7.90;99.90;;;;;;5072809;28;20032;-65
2023/09/24 04:49:44;;;;;;;11.32;2.10;;;7.90;99.90;;;;;;5077634;28;20491;-64
2023/09/24 04:52:10;;;;;;;5.68;2.47;;;7.80;99.90;;;;;;5087365;28;20024;-66
2023/09/24 04:54:35;;;;;;;10.10;2.88;;;7.80;99.90;;;;;;5098446;28;20354;-65
2023/09/24 04:57:01;;;;;;;3.95;2.22;;;7.80;99.90;;;;;;5094051;28;20390;-66
2023/09/24 04:59:26;;;;;;;3.95;2.40;;;7.70;99.90;;;;;;5075685;28;20032;-66
2023/09/24 05:01:52;;;;;;;5.15;2.95;;;7.70;99.90;;;;;;5094427;28;20016;-65
2023/09/24 05:04:20;;;;;;;7.32;2.45;;;7.70;99.90;;;;;;5090150;28;20032;-66
2023/09/24 05:06:46;;;;;;;11.65;3.42;;;7.70;99.90;;;;;;5074368;28;20503;-65
2023/09/24 05:09:12;;;;;;;5.93;2.50;;;7.70;99.90;;;;;;5065423;28;20159;-63
2023/09/24 05:11:37;;;;;;;14.60;3.00;;;7.60;99.90;;;;;;5077613;28;20032;-67
2023/09/24 05:14:03;;;;;;;6.28;2.17;;;7.70;99.90;;;;;;5077325;28;20528;-66
2023/09/24 05:16:30;;;;;;;26.63;2.15;;;7.60;99.90;;;;;;5065565;28;20028;-65
2023/09/24 05:18:56;;;;;;;10.98;1.90;;;7.60;99.90;;;;;;5077458;28;20048;-64
2023/09/24 05:21:22;;;;;;;19.08;2.83;;;7.60;99.90;;;;;;5060505;28;20511;-66
2023/09/24 05:23:47;;;;;;;43.63;2.60;;;7.70;99.90;;;;;;5090065;28;20110;-67
2023/09/24 05:26:14;;;;;;;21.77;2.13;;;7.70;99.90;;;;;;5065426;28;20164;-65
2023/09/24 05:28:41;;;;;;;38.92;2.65;;;7.70;99.90;;;;;;5071172;28;20438;-65
2023/09/24 05:31:07;;;;;;;22.27;2.10;;;7.70;99.90;;;;;;5075822;28;20016;-66
2023/09/24 05:33:32;;;;;;;25.45;2.25;;;7.70;99.90;;;;;;5069495;28;20516;-67
2023/09/24 05:35:58;;;;;;;15.32;1.77;;;7.70;99.90;;;;;;5082089;28;20028;-65
2023/09/24 05:38:26;;;;;;;49.88;3.40;;;7.70;99.90;;;;;;5056927;28;20028;-65
2023/09/24 05:40:52;;;;;;;25.23;2.55;;;7.80;99.90;;;;;;5081757;28;20099;-66
2023/09/24 05:43:19;;;;;;;64.85;3.22;;;8.00;99.90;;;;;;5081222;28;20221;-64
2023/09/24 05:45:49;;;;;;;47.30;3.13;;;8.00;99.90;;;;;;5069739;28;20021;-64
2023/09/24 05:48:15;;;;;;;43.63;3.10;;;8.00;99.90;;;;;;5082450;28;20097;-65
2023/09/24 05:50:42;;;;;;;34.22;3.38;;;8.10;99.90;;;;;;5083369;28;20131;-67
2023/09/24 05:53:12;;;;;;;27.92;3.35;;;8.20;99.90;;;;;;5092832;28;20036;-66
2023/09/24 05:55:37;;;;;;;24.17;2.88;;;8.20;99.90;;;;;;5080063;28;20089;-66
2023/09/24 05:58:07;;;;;;;6.68;2.05;;;8.30;99.90;;;;;;5073693;28;20029;-65
2023/09/24 06:00:37;;;;;;;14.93;1.98;;;8.40;99.90;;;;;;5087463;28;20385;-65
2023/09/24 06:03:03;;;;;;;9.00;2.13;;;8.40;99.90;;;;;;5078548;28;20013;-66
2023/09/24 06:05:29;;;;;;;30.75;3.30;;;8.50;99.90;;;;;;5077170;28;20032;-65
2023/09/24 06:07:55;;;;;;;41.75;2.42;;;8.50;99.90;;;;;;5065193;28;20044;-64
2023/09/24 06:10:21;;;;;;;27.50;2.03;;;8.50;99.90;;;;;;5097251;28;20086;-65
2023/09/24 06:12:47;;;;;;;22.02;2.25;;;8.60;99.90;;;;;;5097282;28;20031;-65
2023/09/24 06:15:13;;;;;;;28.13;2.45;;;8.60;99.90;;;;;;5074099;28;20035;-62
2023/09/24 06:17:39;;;;;;;30.98;1.90;;;8.70;99.90;;;;;;5077942;28;20418;-64
2023/09/24 06:20:06;;;;;;;47.60;3.03;;;8.70;99.90;;;;;;5074836;28;20020;-62
2023/09/24 06:22:31;;;;;;;22.45;2.22;;;8.90;99.90;;;;;;5055499;28;20020;-62
2023/09/24 06:24:57;;;;;;;35.10;2.65;;;9.00;99.90;;;;;;5070493;28;20078;-63
2023/09/24 06:27:23;;;;;;;24.02;2.53;;;9.10;99.90;;;;;;5083771;28;20043;-65
2023/09/24 06:29:49;;;;;;;20.15;3.00;;;9.20;99.90;;;;;;5081481;28;21666;-66
2023/09/24 06:32:14;;;;;;;12.68;5.07;;;9.40;99.90;;;;;;5076007;28;20067;-65
2023/09/24 06:34:40;;;;;;;11.07;6.55;;;9.50;99.90;;;;;;5080068;28;20118;-66
2023/09/24 06:37:05;;;;;;;10.63;4.78;;;9.70;99.90;;;;;;5070130;28;20406;-66
2023/09/24 06:39:34;;;;;;;14.77;2.90;;;9.90;99.90;;;;;;5074433;28;20024;-65
2023/09/24 06:42:00;;;;;;;3.15;2.50;;;9.90;99.90;;;;;;5062307;28;20112;-64
2023/09/24 06:44:26;;;;;;;8.50;3.80;;;10.20;99.90;;;;;;5079308;28;20024;-65
2023/09/24 06:46:52;;;;;;;2.67;2.05;;;10.60;99.90;;;;;;5076929;28;20039;-65
2023/09/24 06:49:19;;;;;;;2.80;2.15;;;10.90;99.90;;;;;;5070688;28;20023;-63
2023/09/24 06:51:45;;;;;;;2.67;2.30;;;11.60;99.90;;;;;;5082737;28;20070;-65
2023/09/24 06:54:10;;;;;;;9.77;1.80;;;11.60;99.90;;;;;;5088236;28;20031;-65
2023/09/24 06:56:36;;;;;;;3.13;1.65;;;12.10;99.90;;;;;;5088381;28;21602;-68
2023/09/24 06:59:08;;;;;;;4.53;1.27;;;12.50;99.90;;;;;;5081929;28;20048;-66
2023/09/24 07:01:34;;;;;;;2.85;1.90;;;13.10;99.90;;;;;;5088725;28;20487;-65
2023/09/24 07:03:59;;;;;;;5.30;1.30;;;13.70;99.90;;;;;;5073055;28;20037;-65
2023/09/24 07:06:25;;;;;;;12.55;2.03;;;14.60;99.90;;;;;;5061281;28;20020;-65
2023/09/24 07:08:50;;;;;;;3.50;1.40;;;14.50;99.90;;;;;;5083972;28;20028;-65
2023/09/24 07:11:28;;;;;;;4.32;1.40;;;14.20;99.90;;;;;;5074617;28;20031;-66
2023/09/24 07:13:55;;;;;;;6.32;1.77;;;13.80;99.90;;;;;;5082835;28;20017;-65
2023/09/24 07:16:23;;;;;;;4.18;2.20;;;13.20;99.90;;;;;;5077817;28;20070;-67
2023/09/24 07:18:50;;;;;;;2.42;1.80;;;12.70;99.90;;;;;;5095818;28;20027;-65
2023/09/24 07:21:17;;;;;;;5.15;2.20;;;12.40;99.90;;;;;;5076003;28;20077;-63
2023/09/24 07:23:42;;;;;;;1.70;1.60;;;12.30;99.90;;;;;;5056113;28;20033;-64
2023/09/24 07:26:08;;;;;;;4.68;2.00;;;12.20;99.90;;;;;;5075633;28;20515;-63
2023/09/24 07:28:35;;;;;;;3.60;1.67;;;12.10;99.90;;;;;;5077137;28;20089;-66
2023/09/24 07:31:00;;;;;;;5.22;1.88;;;12.10;99.90;;;;;;5069161;28;20028;-65
2023/09/24 07:33:26;;;;;;;2.28;1.75;;;12.00;99.90;;;;;;5062471;28;20048;-66
2023/09/24 07:35:52;;;;;;;2.97;2.20;;;12.00;99.90;;;;;;5062542;28;20070;-66
2023/09/24 07:38:18;;;;;;;2.53;1.98;;;12.00;99.90;;;;;;5060614;28;20041;-66
2023/09/24 07:40:44;;;;;;;3.38;2.30;;;12.00;99.90;;;;;;5067494;28;20051;-64
2023/09/24 07:43:11;;;;;;;8.63;2.20;;;12.20;99.90;;;;;;5072246;28;20481;-65
2023/09/24 07:45:36;;;;;;;4.82;1.80;;;12.20;99.90;;;;;;5079114;28;20020;-67
2023/09/24 07:48:06;;;;;;;2.35;1.70;;;12.30;99.90;;;;;;5019568;28;20055;-66
2023/09/24 07:50:32;;;;;;;4.15;2.15;;;12.30;99.90;;;;;;5072318;28;20020;-66
2023/09/24 07:52:57;;;;;;;4.15;2.00;;;12.30;99.90;;;;;;5071248;28;20035;-63
2023/09/24 07:55:23;;;;;;;3.13;1.70;;;12.40;99.90;;;;;;5067651;28;20031;-67
2023/09/24 07:57:48;;;;;;;3.78;2.10;;;12.50;99.90;;;;;;5065999;28;20040;-65
2023/09/24 08:00:14;;;;;;;4.78;2.50;;;12.60;99.90;;;;;;5040759;28;20118;-64
2023/09/24 08:02:40;;;;;;;4.90;1.92;;;12.70;99.90;;;;;;5065324;28;20122;-65
2023/09/24 08:05:05;;;;;;;4.85;2.53;;;12.80;99.90;;;;;;5078114;28;20028;-66
2023/09/24 08:07:32;;;;;;;4.65;1.75;;;12.90;99.90;;;;;;5053616;28;20158;-65
2023/09/24 08:09:59;;;;;;;3.58;1.95;;;13.10;99.90;;;;;;5074797;28;20029;-64
2023/09/24 08:12:24;;;;;;;2.67;1.88;;;13.30;99.90;;;;;;5056451;28;20036;-61
2023/09/24 08:14:50;;;;;;;2.00;1.73;;;13.40;99.90;;;;;;5077329;28;20459;-67
2023/09/24 08:17:15;;;;;;;3.83;2.00;;;13.40;99.90;;;;;;5067736;28;20041;-62
2023/09/24 08:19:41;;;;;;;1.75;1.27;;;13.60;99.90;;;;;;5061438;28;20025;-65
2023/09/24 08:22:07;;;;;;;3.45;1.23;;;13.90;99.90;;;;;;5064495;28;20111;-64
2023/09/24 08:24:32;;;;;;;2.58;1.45;;;14.30;99.90;;;;;;5071491;28;20024;-63
2023/09/24 08:26:58;;;;;;;3.20;1.25;;;14.50;99.90;;;;;;5078113;28;20028;-66
2023/09/24 08:29:24;;;;;;;5.13;1.15;;;15.10;99.90;;;;;;5071883;28;20386;-65
2023/09/24 08:31:49;;;;;;;2.03;1.20;;;15.60;99.90;;;;;;5074007;28;20024;-64
2023/09/24 08:34:15;;;;;;;3.35;1.35;;;16.10;99.90;;;;;;5068467;28;20091;-66
2023/09/24 08:36:41;;;;;;;5.18;1.75;;;16.60;99.90;;;;;;5079857;28;20033;-66
2023/09/24 08:39:08;;;;;;;2.80;1.00;;;17.10;99.90;;;;;;5076976;28;20391;-65
2023/09/24 08:41:41;;;;;;;8.60;1.42;;;17.70;99.90;;;;;;5053489;28;20039;-67
2023/09/24 08:44:16;;;;;;;5.38;1.00;;;18.30;99.90;;;;;;5077892;28;20490;-67
2023/09/24 08:46:43;;;;;;;2.22;0.98;;;18.60;99.90;;;;;;5061149;28;20051;-66
2023/09/24 08:49:10;;;;;;;2.63;1.02;;;19.00;99.90;;;;;;5075016;28;20024;-66
2023/09/24 08:51:36;;;;;;;2.53;1.00;;;18.90;99.90;;;;;;5074605;28;20036;-68
2023/09/24 08:54:03;;;;;;;2.20;0.75;;;19.80;99.90;;;;;;5080656;28;20090;-67
2023/09/24 08:56:29;;;;;;;3.22;1.00;;;20.30;99.90;;;;;;5078259;28;20548;-68
2023/09/24 08:58:55;;;;;;;2.47;0.60;;;20.50;99.90;;;;;;5079144;28;20028;-66
2023/09/24 09:01:21;;;;;;;5.68;1.00;;;21.10;99.90;;;;;;5053633;28;20028;-67
2023/09/24 09:03:47;;;;;;;3.83;0.80;;;21.20;99.90;;;;;;5082470;28;20058;-66
2023/09/24 09:06:32;;;;;;;7.28;1.25;;;21.20;99.90;;;;;;5080899;28;20393;-66
2023/09/24 09:08:58;;;;;;;3.17;0.98;;;21.10;99.90;;;;;;5077797;28;20029;-67
2023/09/24 09:11:56;;;;;;;2.17;1.00;;;20.90;99.90;;;;;;5068004;28;20036;-66
2023/09/24 09:14:34;;;;;;;3.65;1.40;;;21.20;99.50;;;;;;5043737;28;20492;-67
2023/09/24 09:16:59;;;;;;;2.70;1.25;;;21.50;99.90;;;;;;5080642;28;20038;-65
2023/09/24 09:19:27;;;;;;;1.58;0.93;;;21.60;98.80;;;;;;5076050;28;20032;-67
2023/09/24 09:21:53;;;;;;;2.30;0.95;;;21.20;99.90;;;;;;5080059;28;20032;-64
2023/09/24 09:24:23;;;;;;;6.97;1.10;;;21.40;99.90;;;;;;5076478;28;20562;-66
2023/09/24 09:26:56;;;;;;;4.65;1.08;;;21.80;98.90;;;;;;5079179;27;20642;-65
2023/09/24 09:29:24;;;;;;;3.40;1.25;;;21.50;99.30;;;;;;5081766;28;20055;-64
2023/09/24 09:31:50;;;;;;;3.17;1.25;;;21.80;98.10;;;;;;5076614;28;20043;-62
2023/09/24 09:34:17;;;;;;;2.47;0.93;;;21.90;98.10;;;;;;5075837;28;20034;-65
2023/09/24 09:36:42;;;;;;;1.10;0.73;;;21.60;98.00;;;;;;5070468;28;20020;-65
2023/09/24 09:39:09;;;;;;;6.07;1.60;;;21.60;98.40;;;;;;5079799;28;20397;-65
2023/09/24 09:41:34;;;;;;;2.25;0.90;;;21.50;98.80;;;;;;5079596;28;20054;-64
2023/09/24 09:44:10;;;;;;;2.40;1.15;;;21.80;98.20;;;;;;5050894;28;20040;-64
2023/09/24 09:46:38;;;;;;;1.38;0.73;;;22.10;97.00;;;;;;5079300;28;20028;-66
2023/09/24 09:49:07;;;;;;;7.72;1.02;;;22.10;95.00;;;;;;5069218;28;20497;-65
2023/09/24 09:51:46;;;;;;;0.70;0.50;;;21.80;96.40;;;;;;5068678;28;20115;-64
2023/09/24 09:54:13;;;;;;;10.77;1.00;;;22.10;97.80;;;;;;5074469;28;20464;-61
2023/09/24 09:56:41;;;;;;;2.30;0.70;;;22.10;96.30;;;;;;5070037;28;20145;-68
2023/09/24 09:59:07;;;;;;;3.53;1.20;;;22.30;97.40;;;;;;5071038;28;20024;-65
2023/09/24 10:01:33;;;;;;;3.42;0.77;;;22.40;95.50;;;;;;5068133;28;20029;-65
2023/09/24 10:04:05;;;;;;;4.47;1.08;;;22.50;93.80;;;;;;5051756;28;20032;-64
2023/09/24 10:06:35;;;;;;;1.52;0.80;;;22.00;96.30;;;;;;5076998;28;20031;-67
2023/09/24 10:09:01;;;;;;;2.60;0.73;;;22.00;95.10;;;;;;5069382;28;20024;-66
2023/09/24 10:11:32;;;;;;;2.33;0.80;;;21.90;95.60;;;;;;5074826;28;20109;-66
2023/09/24 10:14:05;;;;;;;6.10;0.70;;;21.50;95.40;;;;;;5072280;28;20059;-65
2023/09/24 10:16:41;;;;;;;5.60;1.15;;;21.20;95.90;;;;;;5053461;28;20032;-67
2023/09/24 10:19:12;;;;;;;4.40;1.17;;;21.10;95.50;;;;;;5078002;28;20020;-67
2023/09/24 10:21:45;;;;;;;7.30;1.40;;;20.70;94.90;;;;;;5075780;28;20031;-67
2023/09/24 10:24:13;;;;;;;3.60;1.05;;;20.30;96.30;;;;;;5067827;28;20021;-63
2023/09/24 10:26:49;;;;;;;3.38;1.20;;;20.10;96.70;;;;;;5069959;28;20170;-65
2023/09/24 10:29:16;;;;;;;8.07;0.85;;;19.80;97.60;;;;;;5068150;28;20027;-62
2023/09/24 10:32:08;;;;;;;2.25;1.05;;;19.80;98.30;;;;;;5062082;28;20031;-67
2023/09/24 10:34:55;;;;;;;4.88;1.20;;;19.90;97.30;;;;;;5075490;28;20038;-63
2023/09/24 10:37:38;;;;;;;8.43;1.27;;;19.90;98.20;;;;;;5075387;28;20043;-66
2023/09/24 10:40:12;;;;;;;4.30;1.10;;;19.80;98.10;;;;;;5046927;28;21541;-68
2023/09/24 10:42:39;;;;;;;5.18;1.92;;;19.90;98.70;;;;;;5074611;28;20026;-65
2023/09/24 10:45:07;;;;;;;5.60;0.70;;;19.90;97.40;;;;;;5076529;28;20396;-66
2023/09/24 10:47:38;;;;;;;3.63;0.95;;;19.90;97.50;;;;;;5069510;28;20113;-65
2023/09/24 10:50:07;;;;;;;4.30;0.85;;;19.80;98.20;;;;;;5074747;28;20174;-67
2023/09/24 10:52:54;;;;;;;2.35;0.98;;;19.80;97.30;;;;;;5056394;28;20377;-66
2023/09/24 10:55:33;;;;;;;2.50;1.00;;;19.80;98.00;;;;;;5075512;28;20051;-65
2023/09/24 10:58:00;;;;;;;5.38;1.00;;;19.80;97.90;;;;;;5073146;28;20690;-66
2023/09/24 11:00:27;;;;;;;2.58;1.42;;;19.80;98.70;;;;;;5067700;28;20032;-66
2023/09/24 11:02:58;;;;;;;3.08;1.25;;;19.80;97.80;;;;;;5076987;28;20032;-67
2023/09/24 11:05:24;;;;;;;1.67;0.85;;;19.70;97.30;;;;;;5077055;28;20031;-66
2023/09/24 11:07:50;;;;;;;1.98;0.90;;;19.60;98.30;;;;;;5070718;28;20033;-66
2023/09/24 11:10:19;;;;;;;1.33;0.52;;;19.70;98.70;;;;;;5055626;28;20024;-69
2023/09/24 11:12:49;;;;;;;3.85;0.88;;;19.70;99.70;;;;;;5068826;28;20035;-65
2023/09/24 11:15:16;;;;;;;3.60;0.70;;;19.70;98.70;;;;;;5076838;28;20063;-62
2023/09/24 11:17:44;;;;;;;1.15;0.70;;;19.80;98.50;;;;;;5075544;28;20464;-65
2023/09/24 11:20:10;;;;;;;2.92;0.75;;;19.70;97.70;;;;;;5077097;28;20077;-66
2023/09/24 11:22:35;;;;;;;2.15;0.80;;;19.70;97.80;;;;;;5077031;28;20021;-66
2023/09/24 11:25:14;;;;;;;5.28;0.90;;;19.70;98.30;;;;;;5067994;28;20692;-66
2023/09/24 11:27:51;;;;;;;3.17;0.95;;;19.80;96.80;;;;;;5071857;28;20193;-60
2023/09/24 11:30:19;;;;;;;4.85;0.88;;;19.70;96.80;;;;;;5059756;28;20028;-65
2023/09/24 11:32:46;;;;;;;2.90;0.80;;;19.60;96.20;;;;;;5049592;28;20465;-66
2023/09/24 11:35:25;;;;;;;3.00;0.80;;;19.60;96.10;;;;;;5068853;28;20505;-66
2023/09/24 11:38:00;;;;;;;3.55;1.10;;;19.50;94.50;;;;;;5073118;28;20446;-66
2023/09/24 11:40:28;;;;;;;2.08;0.65;;;19.50;95.00;;;;;;5069818;28;20446;-67
2023/09/24 11:42:57;;;;;;;1.50;0.80;;;19.50;96.00;;;;;;5067666;28;20044;-66
2023/09/24 11:45:46;;;;;;;2.63;0.73;;;19.40;96.10;;;;;;5055234;28;20017;-63
2023/09/24 11:48:23;;;;;;;2.65;0.80;;;19.30;93.90;;;;;;5072957;28;20103;-66
2023/09/24 11:50:51;;;;;;;2.65;0.77;;;19.30;93.90;;;;;;5073996;28;20032;-66
2023/09/24 11:53:19;;;;;;;2.33;0.52;;;19.30;95.10;;;;;;5075712;28;20026;-62
2023/09/24 11:55:44;;;;;;;5.22;0.65;;;19.20;95.50;;;;;;5071692;28;20033;-66
2023/09/24 11:58:13;;;;;;;5.97;1.13;;;19.30;94.00;;;;;;5066653;28;20028;-67
2023/09/24 12:00:44;;;;;;;3.42;0.47;;;19.30;94.60;;;;;;5077806;28;20029;-65
2023/09/24 12:03:13;;;;;;;3.97;1.20;;;19.30;93.20;;;;;;5077055;28;20017;-66
2023/09/24 12:05:40;;;;;;;2.97;1.17;;;19.20;93.30;;;;;;5086513;28;20030;-65
2023/09/24 12:08:06;;;;;;;2.95;0.93;;;19.20;94.50;;;;;;5078653;28;20024;-66
2023/09/24 12:10:34;;;;;;;2.08;0.70;;;19.10;95.20;;;;;;5080530;28;20025;-65
2023/09/24 12:13:04;;;;;;;3.17;1.40;;;19.10;95.70;;;;;;5077842;28;20025;-65
2023/09/24 12:15:30;;;;;;;7.90;2.35;;;19.10;95.70;;;;;;5080664;28;20531;-65
2023/09/24 12:17:57;;;;;;;4.18;0.68;;;19.10;94.70;;;;;;5092697;28;20514;-65
2023/09/24 12:20:23;;;;;;;3.38;0.98;;;19.00;94.20;;;;;;5094062;28;20030;-66
2023/09/24 12:22:49;;;;;;;3.90;0.88;;;19.00;93.40;;;;;;5069190;28;20385;-65
2023/09/24 12:25:14;;;;;;;1.65;0.77;;;19.00;94.20;;;;;;5090174;28;20028;-64
2023/09/24 12:27:40;;;;;;;2.10;0.60;;;19.00;94.60;;;;;;5078692;28;20556;-65
2023/09/24 12:30:10;;;;;;;2.47;1.00;;;19.00;94.70;;;;;;5073566;28;20053;-66
2023/09/24 12:32:35;;;;;;;0.95;0.60;;;18.90;94.80;;;;;;5060239;28;20028;-66
2023/09/24 12:35:07;;;;;;;2.88;0.80;;;18.90;94.40;;;;;;5091753;28;20042;-64
2023/09/24 12:37:34;;;;;;;1.60;0.65;;;18.90;94.00;;;;;;5076915;28;20086;-65
2023/09/24 12:40:00;;;;;;;1.48;0.80;;;18.90;96.00;;;;;;5079470;28;20064;-67
2023/09/24 12:42:28;;;;;;;2.63;0.77;;;18.90;95.70;;;;;;5079765;28;20071;-67
2023/09/24 12:44:54;;;;;;;5.55;1.02;;;18.90;95.70;;;;;;5073553;28;20108;-63
2023/09/24 12:47:20;;;;;;;1.70;0.95;;;18.90;96.60;;;;;;5080596;28;20490;-64
2023/09/24 12:49:46;;;;;;;2.55;0.88;;;18.80;96.50;;;;;;5080660;28;20128;-65
2023/09/24 12:52:12;;;;;;;0.60;0.50;;;18.80;95.30;;;;;;5092342;28;20031;-65
2023/09/24 12:54:39;;;;;;;2.15;0.57;;;18.70;95.30;;;;;;5095033;28;20015;-65